createdAt,value
2023-02-11T00:01:20.267Z,4.26
2023-02-11T00:03:48.078Z,4.25
2023-02-11T00:06:15.829Z,4.29
2023-02-11T00:08:43.859Z,4.39
2023-02-11T00:11:16.114Z,4.43
2023-02-11T00:13:44.230Z,4.50
2023-02-11T00:16:14.315Z,4.47
2023-02-11T00:18:41.962Z,4.55
2023-02-11T00:21:10.252Z,4.46
2023-02-11T00:23:38.263Z,4.36
2023-02-11T00:26:12.352Z,4.30
2023-02-11T00:28:41.399Z,4.31
2023-02-11T00:31:09.419Z,4.34
2023-02-11T00:33:37.236Z,4.39
2023-02-11T00:36:05.977Z,4.34
2023-02-11T00:38:33.638Z,4.39
2023-02-11T00:41:01.345Z,4.34
2023-02-11T00:43:28.941Z,4.34
2023-02-11T00:45:58.050Z,4.34
2023-02-11T00:48:25.843Z,4.27
2023-02-11T00:50:53.457Z,4.29
2023-02-11T00:53:21.080Z,4.24
2023-02-11T00:55:49.091Z,4.20
2023-02-11T00:58:16.929Z,4.30
2023-02-11T01:00:44.722Z,4.18
2023-02-11T01:03:13.721Z,4.12
2023-02-11T01:05:41.379Z,4.15
2023-02-11T01:08:09.089Z,4.12
2023-02-11T01:10:36.775Z,3.99
2023-02-11T01:13:04.492Z,3.97
2023-02-11T01:15:32.104Z,3.85
2023-02-11T01:18:00.282Z,3.86
2023-02-11T01:20:30.376Z,3.74
2023-02-11T01:22:58.185Z,3.74
2023-02-11T01:25:25.979Z,3.71
2023-02-11T01:27:53.558Z,3.75
2023-02-11T01:30:21.162Z,3.87
2023-02-11T01:32:48.856Z,3.93
2023-02-11T01:35:16.535Z,4.00
2023-02-11T01:37:47.745Z,4.06
2023-02-11T01:40:18.156Z,4.02
2023-02-11T01:42:47.890Z,4.03
2023-02-11T01:45:50.759Z,4.05
2023-02-11T01:48:22.628Z,4.06
2023-02-11T01:50:54.752Z,4.12
2023-02-11T01:53:41.960Z,4.17
2023-02-11T01:56:27.411Z,4.23
2023-02-11T01:59:00.312Z,4.23
2023-02-11T02:01:29.980Z,4.19
2023-02-11T02:04:02.758Z,4.04
2023-02-11T02:06:35.847Z,3.97
2023-02-11T02:09:08.984Z,3.99
2023-02-11T02:11:37.334Z,4.02
2023-02-11T02:14:05.029Z,3.94
2023-02-11T02:16:35.808Z,3.84
2023-02-11T02:19:25.875Z,3.76
2023-02-11T02:22:26.098Z,3.68
2023-02-11T02:25:25.102Z,3.54
2023-02-11T02:28:02.004Z,3.61
2023-02-11T02:30:54.299Z,3.64
2023-02-11T02:33:40.716Z,3.61
2023-02-11T02:36:17.173Z,3.53
2023-02-11T02:38:51.677Z,3.49
2023-02-11T02:41:23.086Z,3.64
2023-02-11T02:43:52.587Z,3.72
2023-02-11T02:46:24.461Z,3.71
2023-02-11T02:48:54.708Z,3.70
2023-02-11T02:51:46.686Z,3.67
2023-02-11T02:55:02.008Z,3.81
2023-02-11T02:57:40.190Z,3.81
2023-02-11T03:00:22.741Z,3.75
2023-02-11T03:03:07.003Z,3.74
2023-02-11T03:05:49.575Z,3.67
2023-02-11T03:08:23.310Z,3.79
2023-02-11T03:10:53.542Z,3.97
2023-02-11T03:13:32.003Z,3.91
2023-02-11T03:16:01.770Z,3.79
2023-02-11T03:18:31.534Z,3.72
2023-02-11T03:21:03.496Z,3.81
2023-02-11T03:23:37.456Z,3.72
2023-02-11T03:26:12.633Z,3.71
2023-02-11T03:28:46.568Z,3.67
2023-02-11T03:31:20.077Z,3.71
2023-02-11T03:33:57.966Z,3.71
2023-02-11T03:36:34.014Z,3.79
2023-02-11T03:39:03.877Z,3.76
2023-02-11T03:41:32.651Z,3.74
2023-02-11T03:44:00.943Z,3.69
2023-02-11T03:46:32.268Z,3.65
2023-02-11T03:49:05.217Z,3.68
2023-02-11T03:51:35.717Z,3.81
2023-02-11T03:54:06.959Z,3.78
2023-02-11T03:56:40.608Z,3.81
2023-02-11T03:59:08.996Z,4.03
2023-02-11T04:01:36.689Z,4.03
2023-02-11T04:04:04.578Z,4.01
2023-02-11T04:06:32.168Z,4.02
2023-02-11T04:09:01.156Z,4.02
2023-02-11T04:11:28.864Z,3.89
2023-02-11T04:13:56.462Z,3.78
2023-02-11T04:16:24.167Z,3.74
2023-02-11T04:18:51.835Z,3.67
2023-02-11T04:21:19.717Z,3.67
2023-02-11T04:23:47.315Z,3.64
2023-02-11T04:26:16.366Z,3.66
2023-02-11T04:28:44.058Z,3.65
2023-02-11T04:31:12.877Z,3.58
2023-02-11T04:33:40.457Z,3.57
2023-02-11T04:36:09.055Z,3.57
2023-02-11T04:38:36.657Z,3.47
2023-02-11T04:41:04.253Z,3.49
2023-02-11T04:43:33.212Z,3.51
2023-02-11T04:46:00.850Z,3.58
2023-02-11T04:48:28.584Z,3.77
2023-02-11T04:50:56.199Z,3.65
2023-02-11T04:53:23.843Z,3.55
2023-02-11T04:55:52.305Z,3.67
2023-02-11T04:58:21.011Z,3.75
2023-02-11T05:00:50.089Z,3.75
2023-02-11T05:03:18.324Z,3.67
2023-02-11T05:05:46.037Z,3.63
2023-02-11T05:08:14.196Z,3.69
2023-02-11T05:10:41.751Z,3.76
2023-02-11T05:13:09.433Z,3.80
2023-02-11T05:15:37.041Z,3.76
2023-02-11T05:18:06.298Z,3.67
2023-02-11T05:20:33.940Z,3.77
2023-02-11T05:23:01.551Z,3.89
2023-02-11T05:25:29.189Z,3.92
2023-02-11T05:27:57.126Z,3.92
2023-02-11T05:30:24.767Z,3.92
2023-02-11T05:32:52.602Z,3.91
2023-02-11T05:35:22.170Z,3.85
2023-02-11T05:37:49.841Z,3.72
2023-02-11T05:40:17.757Z,3.65
2023-02-11T05:42:45.450Z,3.59
2023-02-11T05:45:13.097Z,3.53
2023-02-11T05:47:40.739Z,3.64
2023-02-11T05:50:08.927Z,3.69
2023-02-11T05:52:37.931Z,3.64
2023-02-11T05:55:06.371Z,3.72
2023-02-11T05:57:34.237Z,3.81
2023-02-11T06:00:01.840Z,3.88
2023-02-11T06:02:29.550Z,3.86
2023-02-11T06:04:57.213Z,3.86
2023-02-11T06:07:24.898Z,3.83
2023-02-11T06:09:53.955Z,3.77
2023-02-11T06:12:21.619Z,3.76
2023-02-11T06:14:51.723Z,3.72
2023-02-11T06:17:19.538Z,3.79
2023-02-11T06:19:47.208Z,3.82
2023-02-11T06:22:14.845Z,3.89
2023-02-11T06:25:00.378Z,3.90
2023-02-11T06:27:31.135Z,4.04
2023-02-11T06:29:58.765Z,4.04
2023-02-11T06:32:45.373Z,4.02
2023-02-11T06:35:14.521Z,3.93
2023-02-11T06:37:42.731Z,3.84
2023-02-11T06:40:10.827Z,3.79
2023-02-11T06:42:40.097Z,3.81
2023-02-11T06:45:09.507Z,3.67
2023-02-11T06:47:37.327Z,3.57
2023-02-11T06:50:05.865Z,3.56
2023-02-11T06:52:34.291Z,3.53
2023-02-11T06:55:02.593Z,3.57
2023-02-11T06:57:31.310Z,3.66
2023-02-11T07:00:00.358Z,3.57
2023-02-11T07:02:28.220Z,3.62
2023-02-11T07:04:55.931Z,3.63
2023-02-11T07:07:23.550Z,3.57
2023-02-11T07:09:51.295Z,3.47
2023-02-11T07:12:18.925Z,3.47
2023-02-11T07:14:46.754Z,3.55
2023-02-11T07:17:15.738Z,3.58
2023-02-11T07:19:43.792Z,3.71
2023-02-11T07:22:11.586Z,3.82
2023-02-11T07:24:39.186Z,3.79
2023-02-11T07:27:06.879Z,3.77
2023-02-11T07:29:34.564Z,3.84
2023-02-11T07:32:02.248Z,3.79
2023-02-11T07:34:31.377Z,3.84
2023-02-11T07:36:59.107Z,3.96
2023-02-11T07:39:27.393Z,4.02
2023-02-11T07:41:55.292Z,4.05
2023-02-11T07:44:22.964Z,4.06
2023-02-11T07:46:50.762Z,4.22
2023-02-11T07:49:18.707Z,4.31
2023-02-11T07:51:49.998Z,4.25
2023-02-11T07:54:18.065Z,4.32
2023-02-11T07:56:45.853Z,4.34
2023-02-11T07:59:13.601Z,4.54
2023-02-11T08:01:41.312Z,4.66
2023-02-11T08:04:08.995Z,4.94
2023-02-11T08:06:41.318Z,4.93
2023-02-11T08:09:15.663Z,4.88
2023-02-11T08:11:43.684Z,4.83
2023-02-11T08:14:12.170Z,4.88
2023-02-11T08:16:40.068Z,4.90
2023-02-11T08:19:09.165Z,4.95
2023-02-11T08:21:36.917Z,4.91
2023-02-11T08:24:05.204Z,5.03
2023-02-11T08:26:35.349Z,4.99
2023-02-11T08:29:07.155Z,5.02
2023-02-11T08:31:36.971Z,5.04
2023-02-11T08:34:04.897Z,5.24
2023-02-11T08:36:36.679Z,5.25
2023-02-11T08:39:22.487Z,5.14
2023-02-11T08:41:53.655Z,5.19
2023-02-11T08:44:22.561Z,5.32
2023-02-11T08:46:51.203Z,5.38
2023-02-11T08:49:19.086Z,5.45
2023-02-11T08:51:47.613Z,5.65
2023-02-11T08:54:16.178Z,5.85
2023-02-11T08:56:43.842Z,5.88
2023-02-11T08:59:14.570Z,6.01
2023-02-11T09:01:44.102Z,6.03
2023-02-11T09:04:12.127Z,6.12
2023-02-11T09:06:39.853Z,6.34
2023-02-11T09:09:07.777Z,6.50
2023-02-11T09:11:37.287Z,6.77
2023-02-11T09:14:05.499Z,7.15
2023-02-11T09:16:36.736Z,7.55
2023-02-11T09:19:06.872Z,7.99
2023-02-11T09:21:34.751Z,8.11
2023-02-11T09:24:02.565Z,8.22
2023-02-11T09:26:32.596Z,8.30
2023-02-11T09:29:00.857Z,8.32
2023-02-11T09:31:30.442Z,8.48
2023-02-11T09:34:01.780Z,8.64
2023-02-11T09:36:31.327Z,9.09
2023-02-11T09:39:00.110Z,9.11
2023-02-11T09:41:52.107Z,9.22
2023-02-11T09:44:22.411Z,9.76
2023-02-11T09:46:56.153Z,10.14
2023-02-11T09:49:36.222Z,10.63
2023-02-11T09:52:09.134Z,11.17
2023-02-11T09:54:42.539Z,11.34
2023-02-11T09:57:26.496Z,11.85
2023-02-11T09:59:56.886Z,12.40
2023-02-11T10:02:30.857Z,12.96
2023-02-11T10:05:25.611Z,13.16
2023-02-11T10:08:01.235Z,12.74
2023-02-11T10:10:39.949Z,12.39
2023-02-11T10:13:25.749Z,12.34
2023-02-11T10:16:00.638Z,12.32
2023-02-11T10:18:41.502Z,12.16
2023-02-11T10:21:19.950Z,12.02
2023-02-11T10:23:52.648Z,11.56
2023-02-11T10:26:20.857Z,11.28
2023-02-11T10:28:51.362Z,11.10
2023-02-11T10:31:25.119Z,10.96
2023-02-11T10:33:59.294Z,11.09
2023-02-11T10:36:31.294Z,11.00
2023-02-11T10:39:00.308Z,11.17
2023-02-11T10:41:34.926Z,12.15
2023-02-11T10:44:02.842Z,12.93
2023-02-11T10:46:34.046Z,13.49
2023-02-11T10:49:03.432Z,13.77
2023-02-11T10:51:34.406Z,13.76
2023-02-11T10:54:21.343Z,13.66
2023-02-11T10:56:52.150Z,13.65
2023-02-11T10:59:26.226Z,13.61
2023-02-11T11:01:57.472Z,13.42
2023-02-11T11:04:44.975Z,13.53
2023-02-11T11:07:23.850Z,13.79
2023-02-11T11:09:56.627Z,14.15
2023-02-11T11:12:31.408Z,14.74
2023-02-11T11:15:01.166Z,14.61
2023-02-11T11:17:31.640Z,14.57
2023-02-11T11:20:16.546Z,14.37
2023-02-11T11:22:46.118Z,13.85
2023-02-11T11:25:28.010Z,13.37
2023-02-11T11:27:58.799Z,13.01
2023-02-11T11:30:31.610Z,12.94
2023-02-11T11:33:00.306Z,13.40
2023-02-11T11:35:29.898Z,13.59
2023-02-11T11:38:02.960Z,13.18
2023-02-11T11:40:32.290Z,12.69
2023-02-11T11:43:05.823Z,12.23
2023-02-11T11:45:33.968Z,11.81
2023-02-11T11:48:06.916Z,11.57
2023-02-11T11:50:37.990Z,11.32
2023-02-11T11:53:14.908Z,11.09
2023-02-11T11:55:46.323Z,10.88
2023-02-11T11:58:17.657Z,10.73
2023-02-11T12:00:55.556Z,10.65
2023-02-11T12:04:05.035Z,10.67
2023-02-11T12:06:44.372Z,10.78
2023-02-11T12:09:25.014Z,10.91
2023-02-11T12:12:05.768Z,10.97
2023-02-11T12:14:44.765Z,10.98
2023-02-11T12:17:23.080Z,11.05
2023-02-11T12:20:14.057Z,11.05
2023-02-11T12:22:52.311Z,11.02
2023-02-11T12:25:28.445Z,10.91
2023-02-11T12:28:08.853Z,10.80
2023-02-11T12:30:55.155Z,10.76
2023-02-11T12:33:39.886Z,10.66
2023-02-11T12:36:33.500Z,10.60
2023-02-11T12:39:16.839Z,10.50
2023-02-11T12:42:24.289Z,10.33
2023-02-11T12:45:09.934Z,10.21
2023-02-11T12:47:46.408Z,10.09
2023-02-11T12:50:24.310Z,10.01
2023-02-11T12:53:09.549Z,9.99
2023-02-11T12:55:43.261Z,9.98
2023-02-11T12:58:18.025Z,9.97
2023-02-11T13:00:50.696Z,9.97
2023-02-11T13:03:25.542Z,10.03
2023-02-11T13:05:56.934Z,10.09
2023-02-11T13:08:30.388Z,10.13
2023-02-11T13:11:00.720Z,10.12
2023-02-11T13:13:36.085Z,10.12
2023-02-11T13:16:07.604Z,10.00
2023-02-11T13:18:49.604Z,9.90
2023-02-11T13:21:33.484Z,9.81
2023-02-11T13:24:10.491Z,9.77
2023-02-11T13:26:46.714Z,9.71
2023-02-11T13:29:27.824Z,9.68
2023-02-11T13:31:56.716Z,9.67
2023-02-11T13:34:26.396Z,9.61
2023-02-11T13:36:58.359Z,9.59
2023-02-11T13:39:26.225Z,9.56
2023-02-11T13:42:03.352Z,9.53
2023-02-11T13:44:35.160Z,9.49
2023-02-11T13:47:06.024Z,9.48
2023-02-11T13:49:40.404Z,9.48
2023-02-11T13:52:21.064Z,9.43
2023-02-11T13:54:51.822Z,9.43
2023-02-11T13:57:41.162Z,9.42
2023-02-11T14:00:48.881Z,9.43
2023-02-11T14:03:45.574Z,9.39
2023-02-11T14:06:40.377Z,9.34
2023-02-11T14:09:38.906Z,9.36
2023-02-11T14:12:26.180Z,9.34
2023-02-11T14:15:04.322Z,9.36
2023-02-11T14:17:34.542Z,9.39
2023-02-11T14:20:25.460Z,9.39
2023-02-11T14:22:54.630Z,9.33
2023-02-11T14:25:25.496Z,9.34
2023-02-11T14:27:57.288Z,9.31
2023-02-11T14:30:36.427Z,9.26
2023-02-11T14:33:39.444Z,9.26
2023-02-11T14:36:20.976Z,9.30
2023-02-11T14:39:02.771Z,9.23
2023-02-11T14:41:34.331Z,9.21
2023-02-11T14:44:06.918Z,9.17
2023-02-11T14:46:35.483Z,9.17
2023-02-11T14:49:06.316Z,9.17
2023-02-11T14:51:41.669Z,9.21
2023-02-11T14:54:16.774Z,9.20
2023-02-11T14:56:46.810Z,9.17
2023-02-11T14:59:18.458Z,9.18
2023-02-11T15:01:50.332Z,9.16
2023-02-11T15:04:26.038Z,9.15
2023-02-11T15:06:56.743Z,9.13
2023-02-11T15:09:30.793Z,9.18
2023-02-11T15:11:59.615Z,9.24
2023-02-11T15:14:29.304Z,9.19
2023-02-11T15:16:59.562Z,9.25
2023-02-11T15:19:34.274Z,9.20
2023-02-11T15:22:06.739Z,9.16
2023-02-11T15:24:38.962Z,9.10
2023-02-11T15:27:15.521Z,9.09
2023-02-11T15:29:46.161Z,9.10
2023-02-11T15:32:16.862Z,9.13
2023-02-11T15:34:46.279Z,9.16
2023-02-11T15:37:20.994Z,9.24
2023-02-11T15:39:48.742Z,9.20
2023-02-11T15:42:22.221Z,9.15
2023-02-11T15:44:56.579Z,9.11
2023-02-11T15:47:24.792Z,9.09
2023-02-11T15:49:52.536Z,9.12
2023-02-11T15:52:27.364Z,9.14
2023-02-11T15:54:57.441Z,9.13
2023-02-11T15:57:25.093Z,9.17
2023-02-11T15:59:56.187Z,9.17
2023-02-11T16:02:31.430Z,9.19
2023-02-11T16:05:02.009Z,9.19
2023-02-11T16:07:43.343Z,9.22
2023-02-11T16:10:23.217Z,9.24
2023-02-11T16:13:04.051Z,9.23
2023-02-11T16:15:45.439Z,9.21
2023-02-11T16:18:38.274Z,9.25
2023-02-11T16:21:08.763Z,9.27
2023-02-11T16:23:42.276Z,9.24
2023-02-11T16:26:20.714Z,9.23
2023-02-11T16:28:48.612Z,9.22
2023-02-11T16:31:16.467Z,9.16
2023-02-11T16:33:44.358Z,9.12
2023-02-11T16:36:14.638Z,9.07
2023-02-11T16:38:43.613Z,8.97
2023-02-11T16:41:12.775Z,8.93
2023-02-11T16:43:40.688Z,8.97
2023-02-11T16:46:09.192Z,8.93
2023-02-11T16:48:36.777Z,8.98
2023-02-11T16:51:04.869Z,9.01
2023-02-11T16:53:32.518Z,8.95
2023-02-11T16:56:01.495Z,8.92
2023-02-11T16:58:29.062Z,8.96
2023-02-11T17:00:57.086Z,9.01
2023-02-11T17:03:30.064Z,9.05
2023-02-11T17:05:58.025Z,9.10
2023-02-11T17:08:25.676Z,9.15
2023-02-11T17:10:53.699Z,9.09
2023-02-11T17:13:22.914Z,9.09
2023-02-11T17:15:50.944Z,9.09
2023-02-11T17:18:18.915Z,9.12
2023-02-11T17:20:46.521Z,9.08
2023-02-11T17:23:14.311Z,9.13
2023-02-11T17:25:42.064Z,9.12
2023-02-11T17:28:12.148Z,9.13
2023-02-11T17:30:44.163Z,9.13
2023-02-11T17:33:11.895Z,9.09
2023-02-11T17:35:41.528Z,9.10
2023-02-11T17:38:09.265Z,9.12
2023-02-11T17:40:36.959Z,9.11
2023-02-11T17:43:04.779Z,9.10
2023-02-11T17:45:32.443Z,9.04
2023-02-11T17:48:01.506Z,9.04
2023-02-11T17:50:29.622Z,9.00
2023-02-11T17:52:57.743Z,8.98
2023-02-11T17:55:25.324Z,9.00
2023-02-11T17:57:52.945Z,8.97
2023-02-11T18:00:22.444Z,8.97
2023-02-11T18:02:50.013Z,8.97
2023-02-11T18:05:18.964Z,9.03
2023-02-11T18:07:47.973Z,8.99
2023-02-11T18:10:15.626Z,9.04
2023-02-11T18:12:43.304Z,8.98
2023-02-11T18:15:11.602Z,8.97
2023-02-11T18:17:39.231Z,8.96
2023-02-11T18:20:08.687Z,9.03
2023-02-11T18:22:40.087Z,8.92
2023-02-11T18:25:09.629Z,8.88
2023-02-11T18:27:37.242Z,8.93
2023-02-11T18:30:05.805Z,8.96
2023-02-11T18:32:33.363Z,8.93
2023-02-11T18:35:00.993Z,8.89
2023-02-11T18:37:28.601Z,8.93
2023-02-11T18:39:57.575Z,8.93
2023-02-11T18:42:27.765Z,9.00
2023-02-11T18:44:55.566Z,9.01
2023-02-11T18:47:23.192Z,9.02
2023-02-11T18:49:50.875Z,9.02
2023-02-11T18:52:18.558Z,8.98
2023-02-11T18:54:46.301Z,8.99
2023-02-11T18:57:15.204Z,8.95
2023-02-11T18:59:42.943Z,8.94
2023-02-11T19:02:10.805Z,8.88
2023-02-11T19:04:38.554Z,8.79
2023-02-11T19:07:06.286Z,8.68
2023-02-11T19:09:33.945Z,8.64
2023-02-11T19:12:02.197Z,8.62
2023-02-11T19:14:33.465Z,8.57
2023-02-11T19:17:03.068Z,8.49
2023-02-11T19:19:34.503Z,8.51
2023-02-11T19:22:03.342Z,8.57
2023-02-11T19:24:31.511Z,8.67
2023-02-11T19:27:01.552Z,8.78
2023-02-11T19:29:32.063Z,8.81
2023-02-11T19:31:59.739Z,8.85
2023-02-11T19:34:27.609Z,8.91
2023-02-11T19:36:56.660Z,8.96
2023-02-11T19:39:24.823Z,9.01
2023-02-11T19:41:52.583Z,9.04
2023-02-11T19:44:20.293Z,9.03
2023-02-11T19:46:50.176Z,9.07
2023-02-11T19:49:22.925Z,9.10
2023-02-11T19:51:50.762Z,9.11
2023-02-11T19:54:18.447Z,9.13
2023-02-11T19:56:47.285Z,9.14
2023-02-11T19:59:15.418Z,9.15
2023-02-11T20:01:44.288Z,9.15
2023-02-11T20:04:13.349Z,9.15
2023-02-11T20:06:41.164Z,9.15
2023-02-11T20:09:12.815Z,9.17
2023-02-11T20:11:41.338Z,9.15
2023-02-11T20:14:10.491Z,9.16
2023-02-11T20:16:48.237Z,9.15
2023-02-11T20:19:19.519Z,9.16
2023-02-11T20:21:48.906Z,9.14
2023-02-11T20:24:17.334Z,9.12
2023-02-11T20:26:46.820Z,9.07
2023-02-11T20:29:15.265Z,9.06
2023-02-11T20:31:43.742Z,9.07
2023-02-11T20:34:12.297Z,9.07
2023-02-11T20:36:41.996Z,9.02
2023-02-11T20:39:11.633Z,9.05
2023-02-11T20:41:40.646Z,9.04
2023-02-11T20:44:11.135Z,9.06
2023-02-11T20:46:42.245Z,9.03
2023-02-11T20:49:12.194Z,9.04
2023-02-11T20:51:41.599Z,9.04
2023-02-11T20:54:13.522Z,9.05
2023-02-11T20:56:41.544Z,8.99
2023-02-11T20:59:09.692Z,8.99
2023-02-11T21:01:40.678Z,9.03
2023-02-11T21:04:12.042Z,9.07
2023-02-11T21:06:43.150Z,9.09
2023-02-11T21:09:14.077Z,9.08
2023-02-11T21:11:42.281Z,9.10
2023-02-11T21:14:11.081Z,9.11
2023-02-11T21:16:39.200Z,9.12
2023-02-11T21:19:07.724Z,9.09
2023-02-11T21:21:37.317Z,9.09
2023-02-11T21:24:07.469Z,9.01
2023-02-11T21:26:36.303Z,8.90
2023-02-11T21:29:04.438Z,8.79
2023-02-11T21:31:34.119Z,8.77
2023-02-11T21:34:02.469Z,8.86
2023-02-11T21:36:31.169Z,8.89
2023-02-11T21:39:00.125Z,8.80
2023-02-11T21:41:29.144Z,8.75
2023-02-11T21:43:58.752Z,8.70
2023-02-11T21:46:28.621Z,8.73
2023-02-11T21:48:56.469Z,8.79
2023-02-11T21:51:26.630Z,8.83
2023-02-11T21:53:57.560Z,8.88
2023-02-11T21:56:26.301Z,8.92
2023-02-11T21:58:57.571Z,8.96
2023-02-11T22:01:27.581Z,8.94
2023-02-11T22:03:55.197Z,8.96
2023-02-11T22:06:27.050Z,8.94
2023-02-11T22:08:55.644Z,8.96
2023-02-11T22:11:23.732Z,8.99
2023-02-11T22:13:56.229Z,9.04
2023-02-11T22:16:24.968Z,9.04
2023-02-11T22:18:52.760Z,9.04
2023-02-11T22:21:22.755Z,8.96
2023-02-11T22:23:51.110Z,8.98
2023-02-11T22:26:21.728Z,8.99
2023-02-11T22:28:49.890Z,8.94
2023-02-11T22:31:20.901Z,8.97
2023-02-11T22:33:49.219Z,8.97
2023-02-11T22:36:18.561Z,8.94
2023-02-11T22:38:46.483Z,8.96
2023-02-11T22:41:14.310Z,8.95
2023-02-11T22:43:43.050Z,8.92
2023-02-11T22:46:13.603Z,8.87
2023-02-11T22:48:42.929Z,8.84
2023-02-11T22:51:13.115Z,8.80
2023-02-11T22:53:41.123Z,8.78
2023-02-11T22:56:15.036Z,8.84
2023-02-11T22:58:43.249Z,8.88
2023-02-11T23:01:11.182Z,8.89
2023-02-11T23:03:38.987Z,8.84
2023-02-11T23:06:08.965Z,8.79
2023-02-11T23:08:38.329Z,8.74
2023-02-11T23:11:08.025Z,8.66
2023-02-11T23:13:38.165Z,8.68
2023-02-11T23:16:07.522Z,8.65
2023-02-11T23:18:35.946Z,8.60
2023-02-11T23:21:06.595Z,8.56
2023-02-11T23:23:36.003Z,8.55
2023-02-11T23:26:05.009Z,8.59
2023-02-11T23:28:32.657Z,8.65
2023-02-11T23:31:00.434Z,8.72
2023-02-11T23:33:28.174Z,8.70
2023-02-11T23:35:56.153Z,8.66
2023-02-11T23:38:24.061Z,8.68
2023-02-11T23:40:53.008Z,8.62
2023-02-11T23:43:23.355Z,8.64
2023-02-11T23:45:52.782Z,8.66
2023-02-11T23:48:20.506Z,8.68
2023-02-11T23:50:48.090Z,8.73
2023-02-11T23:53:15.861Z,8.74
2023-02-11T23:55:44.306Z,8.78
2023-02-11T23:58:14.251Z,8.81
